Time;durP1;ratioP1;P1;durP2;ratioP2;P2;SDS_P1;SDS_P2;PMS_P1;PMS_P2;Temp;Humidity;BMP_temperature;BMP_pressure;BME280_temperature;BME280_humidity;BME280_pressure;Samples;Min_cycle;Max_cycle;Signal;HPM_P1;HPM_P2
2022/08/08 00:00:10;;;;;;;3.25;2.20;;;14.40;96.70;;;;;;5089918;28;20096;-62
2022/08/08 00:02:51;;;;;;;5.07;2.30;;;14.30;97.50;;;;;;5094782;28;20069;-62
2022/08/08 00:05:41;;;;;;;4.28;2.38;;;14.20;98.00;;;;;;5089635;28;20470;-62
2022/08/08 00:08:22;;;;;;;6.00;2.20;;;14.10;98.20;;;;;;5090339;28;20107;-62
2022/08/08 00:11:01;;;;;;;3.58;2.42;;;14.00;98.40;;;;;;5085381;28;20064;-61
2022/08/08 00:13:54;;;;;;;8.15;2.33;;;14.20;98.10;;;;;;5088708;28;20056;-62
2022/08/08 00:16:28;;;;;;;3.17;2.42;;;14.20;98.20;;;;;;5087403;28;20031;-61
2022/08/08 00:19:17;;;;;;;3.28;2.20;;;14.10;98.50;;;;;;5089854;28;20048;-61
2022/08/08 00:21:58;;;;;;;3.55;2.25;;;14.10;98.80;;;;;;5073444;28;20048;-62
2022/08/08 00:24:32;;;;;;;4.13;2.53;;;13.90;99.90;;;;;;5074799;28;20032;-62
2022/08/08 00:27:04;;;;;;;5.47;2.45;;;13.80;99.90;;;;;;5089257;28;20039;-61
2022/08/08 00:29:42;;;;;;;5.57;2.42;;;13.60;99.90;;;;;;5085269;28;20489;-62
2022/08/08 00:32:27;;;;;;;3.83;2.28;;;13.70;99.90;;;;;;5078904;28;20035;-61
2022/08/08 00:35:20;;;;;;;3.20;2.38;;;13.70;99.90;;;;;;5087496;28;20023;-62
2022/08/08 00:38:03;;;;;;;3.60;2.53;;;13.80;99.90;;;;;;5086372;28;20016;-61
2022/08/08 00:40:29;;;;;;;3.50;2.47;;;13.80;99.90;;;;;;5082005;28;20059;-61
2022/08/08 00:43:26;;;;;;;3.47;2.40;;;13.60;99.90;;;;;;5086256;28;20024;-61
2022/08/08 00:46:26;;;;;;;3.58;2.38;;;13.50;99.90;;;;;;5079580;28;20036;-62
2022/08/08 00:49:14;;;;;;;3.15;2.40;;;13.50;99.90;;;;;;5074906;28;20577;-61
2022/08/08 00:52:01;;;;;;;3.42;2.40;;;13.50;99.90;;;;;;5078162;28;20032;-63
2022/08/08 00:54:33;;;;;;;3.58;2.47;;;13.60;99.90;;;;;;5069570;28;20035;-62
2022/08/08 00:57:19;;;;;;;4.93;2.65;;;13.60;99.90;;;;;;5076626;28;20024;-62
2022/08/08 00:59:57;;;;;;;3.58;2.40;;;13.60;99.90;;;;;;5075660;28;20028;-62
2022/08/08 01:02:25;;;;;;;5.97;2.58;;;13.70;99.90;;;;;;5090927;28;20037;-61
2022/08/08 01:05:21;;;;;;;3.90;2.35;;;13.60;99.90;;;;;;5072532;28;20115;-61
2022/08/08 01:08:13;;;;;;;3.97;2.40;;;13.40;99.90;;;;;;5075111;28;20050;-61
2022/08/08 01:11:12;;;;;;;4.13;2.17;;;13.20;99.90;;;;;;5051298;28;20040;-62
2022/08/08 01:13:53;;;;;;;2.83;1.92;;;13.30;99.90;;;;;;5085346;28;20140;-61
2022/08/08 01:16:50;;;;;;;4.00;2.28;;;13.30;99.90;;;;;;5082144;28;20072;-61
2022/08/08 01:19:55;;;;;;;3.05;2.45;;;13.20;99.90;;;;;;5085782;28;20102;-61
2022/08/08 01:22:39;;;;;;;4.60;2.35;;;13.00;99.90;;;;;;5076409;28;20028;-61
2022/08/08 01:25:42;;;;;;;3.30;2.22;;;13.00;99.90;;;;;;5068523;28;20021;-62
2022/08/08 01:28:16;;;;;;;4.20;2.85;;;13.00;99.90;;;;;;5081476;28;20020;-62
2022/08/08 01:31:22;;;;;;;4.13;2.60;;;13.10;99.90;;;;;;5069911;28;20039;-62
2022/08/08 01:34:25;;;;;;;3.95;2.60;;;13.10;99.90;;;;;;5085418;28;20089;-62
2022/08/08 01:37:32;;;;;;;3.22;2.42;;;13.00;99.90;;;;;;5081811;28;20027;-61
2022/08/08 01:40:07;;;;;;;4.13;2.50;;;13.00;99.90;;;;;;5090304;28;20058;-61
2022/08/08 01:43:15;;;;;;;4.18;2.70;;;12.90;99.90;;;;;;5090733;28;20508;-62
2022/08/08 01:46:17;;;;;;;4.30;2.47;;;12.60;99.90;;;;;;5079897;28;20056;-61
2022/08/08 01:49:18;;;;;;;4.97;2.47;;;12.50;99.90;;;;;;5085793;28;20082;-61
2022/08/08 01:51:57;;;;;;;2.88;2.40;;;12.70;99.90;;;;;;5062890;28;20108;-61
2022/08/08 01:54:57;;;;;;;5.32;2.65;;;12.70;99.90;;;;;;5084126;28;20032;-61
2022/08/08 01:57:23;;;;;;;4.65;2.28;;;12.50;99.90;;;;;;5073195;28;20029;-61
2022/08/08 02:00:00;;;;;;;3.53;2.78;;;12.50;99.90;;;;;;5080998;28;20031;-61
2022/08/08 02:02:54;;;;;;;4.65;2.55;;;12.50;99.90;;;;;;5086873;28;20131;-61
2022/08/08 02:05:25;;;;;;;5.88;2.65;;;12.60;99.90;;;;;;5085894;28;20051;-61
2022/08/08 02:08:09;;;;;;;4.10;2.60;;;12.50;99.90;;;;;;5088104;28;20107;-61
2022/08/08 02:10:53;;;;;;;7.30;2.90;;;12.40;99.90;;;;;;5083177;28;20482;-62
2022/08/08 02:13:29;;;;;;;3.55;2.70;;;12.40;99.90;;;;;;5088840;28;20024;-61
2022/08/08 02:16:12;;;;;;;3.95;2.72;;;12.40;99.90;;;;;;5082745;28;20085;-62
2022/08/08 02:18:45;;;;;;;3.40;2.60;;;12.50;99.90;;;;;;5076126;28;20144;-62
2022/08/08 02:24:23;;;;;;;4.28;2.70;;;12.50;99.90;;;;;;5087526;28;20166;-61
2022/08/08 02:27:06;;;;;;;4.05;3.00;;;12.40;99.90;;;;;;5103378;28;20039;-62
2022/08/08 02:29:52;;;;;;;2.95;2.30;;;12.40;99.90;;;;;;5077151;28;20040;-62
2022/08/08 02:32:56;;;;;;;3.65;2.60;;;12.40;99.90;;;;;;5087086;28;20036;-61
2022/08/08 02:35:52;;;;;;;3.60;2.40;;;12.40;99.90;;;;;;5037717;28;20430;-61
2022/08/08 02:38:39;;;;;;;4.75;2.75;;;12.20;99.90;;;;;;5082170;28;20030;-61
2022/08/08 02:41:16;;;;;;;3.88;2.92;;;12.10;99.90;;;;;;5086034;28;20479;-61
2022/08/08 02:44:14;;;;;;;4.57;2.85;;;12.00;99.90;;;;;;5089272;28;20043;-62
2022/08/08 02:47:03;;;;;;;4.75;2.85;;;12.00;99.90;;;;;;5086165;28;20112;-62
2022/08/08 02:49:40;;;;;;;4.10;2.95;;;11.90;99.90;;;;;;5087080;28;20036;-61
2022/08/08 02:52:31;;;;;;;5.72;3.00;;;11.70;99.90;;;;;;5085146;28;20428;-62
2022/08/08 02:55:05;;;;;;;5.00;3.33;;;11.70;99.90;;;;;;5077697;28;20021;-62
2022/08/08 02:57:49;;;;;;;5.65;2.90;;;11.80;99.90;;;;;;5073391;28;20040;-61
2022/08/08 03:00:18;;;;;;;3.60;2.78;;;11.80;99.90;;;;;;5083086;28;20030;-62
2022/08/08 03:03:09;;;;;;;6.47;2.80;;;11.90;99.90;;;;;;5092130;28;20100;-62
2022/08/08 03:05:43;;;;;;;;;;;11.80;99.90;;;;;;5083289;28;20035;-62
2022/08/08 03:08:51;;;;;;;4.55;2.60;;;11.70;99.90;;;;;;5078448;28;20259;-62
2022/08/08 03:11:53;;;;;;;6.65;3.05;;;11.70;99.90;;;;;;5077068;28;20063;-62
2022/08/08 03:14:45;;;;;;;3.67;2.63;;;11.80;99.90;;;;;;5094286;28;20028;-62
2022/08/08 03:17:41;;;;;;;3.25;2.65;;;11.80;99.90;;;;;;5109390;28;20035;-61
2022/08/08 03:20:07;;;;;;;5.18;2.80;;;11.70;99.90;;;;;;5120840;27;20032;-62
2022/08/08 03:22:43;;;;;;;3.60;2.35;;;11.70;99.90;;;;;;5091830;28;20081;-62
2022/08/08 03:25:09;;;;;;;5.80;2.83;;;11.70;99.90;;;;;;5091776;28;20759;-62
2022/08/08 03:27:38;;;;;;;4.65;3.00;;;11.70;99.90;;;;;;5094389;28;20031;-62
2022/08/08 03:30:08;;;;;;;4.68;3.13;;;11.50;99.90;;;;;;5091877;28;20036;-62
2022/08/08 03:35:21;;;;;;;3.83;2.95;;;11.30;99.90;;;;;;5071394;28;20599;-62
2022/08/08 03:37:47;;;;;;;4.15;2.92;;;11.40;99.90;;;;;;5084988;28;20040;-62
2022/08/08 03:40:13;;;;;;;4.13;2.92;;;11.50;99.90;;;;;;5094790;28;20098;-62
2022/08/08 03:42:41;;;;;;;6.18;3.30;;;11.50;99.90;;;;;;5097926;28;20028;-61
2022/08/08 03:45:33;;;;;;;8.43;3.30;;;11.60;99.90;;;;;;5091419;28;20482;-62
2022/08/08 03:48:04;;;;;;;4.75;2.72;;;11.50;99.90;;;;;;5086287;28;20120;-62
2022/08/08 03:50:31;;;;;;;6.05;3.30;;;11.50;99.90;;;;;;5110586;28;20043;-62
2022/08/08 03:53:05;;;;;;;5.82;3.50;;;11.40;99.90;;;;;;5110849;28;20112;-62
2022/08/08 03:55:31;;;;;;;4.63;3.33;;;11.20;99.90;;;;;;5111608;28;20393;-62
2022/08/08 03:57:57;;;;;;;6.45;3.30;;;11.00;99.90;;;;;;5103658;28;20022;-62
2022/08/08 04:00:25;;;;;;;5.13;3.40;;;11.10;99.90;;;;;;5091261;28;20051;-62
2022/08/08 04:02:59;;;;;;;6.72;3.10;;;11.20;99.90;;;;;;5089004;28;20467;-62
2022/08/08 04:05:30;;;;;;;6.47;3.38;;;11.40;99.90;;;;;;5091795;28;20032;-62
2022/08/08 04:07:57;;;;;;;8.23;3.30;;;11.40;99.90;;;;;;5090345;28;20055;-62
2022/08/08 04:10:24;;;;;;;5.97;3.30;;;11.50;99.90;;;;;;5091021;28;20036;-62
2022/08/08 04:12:49;;;;;;;4.82;3.15;;;11.50;99.90;;;;;;5089981;28;20544;-61
2022/08/08 04:15:15;;;;;;;5.30;3.25;;;11.50;99.90;;;;;;5090313;28;20024;-62
2022/08/08 04:17:41;;;;;;;4.13;3.00;;;11.50;99.90;;;;;;5088131;28;20146;-62
2022/08/08 04:20:07;;;;;;;4.68;3.08;;;11.40;99.90;;;;;;5089067;28;20040;-62
2022/08/08 04:22:33;;;;;;;6.95;3.40;;;11.30;99.90;;;;;;5090555;28;20093;-62
2022/08/08 04:24:58;;;;;;;5.15;3.90;;;11.20;99.90;;;;;;5088195;28;20036;-62
2022/08/08 04:27:26;;;;;;;5.53;3.00;;;11.20;99.90;;;;;;5090525;28;20455;-61
2022/08/08 04:29:51;;;;;;;4.15;3.00;;;11.20;99.90;;;;;;5089723;28;20531;-62
2022/08/08 04:32:17;;;;;;;6.35;3.55;;;11.20;99.90;;;;;;5090560;28;20071;-62
2022/08/08 04:34:43;;;;;;;5.35;3.42;;;11.20;99.90;;;;;;5088260;28;20028;-62
2022/08/08 04:37:10;;;;;;;4.40;2.90;;;11.30;99.90;;;;;;5090565;28;20035;-62
2022/08/08 04:39:36;;;;;;;6.63;3.60;;;11.30;99.90;;;;;;5090455;28;20026;-61
2022/08/08 04:42:02;;;;;;;5.10;3.50;;;11.40;99.90;;;;;;5086124;28;20024;-62
2022/08/08 04:44:28;;;;;;;5.55;3.50;;;11.50;99.90;;;;;;5085408;28;20027;-62
2022/08/08 04:46:54;;;;;;;5.43;3.70;;;11.60;99.90;;;;;;5089436;28;20562;-62
2022/08/08 04:49:19;;;;;;;8.13;3.63;;;11.80;99.90;;;;;;5089696;28;20097;-61
2022/08/08 04:51:45;;;;;;;7.80;4.10;;;11.90;99.90;;;;;;5088115;28;20032;-62
2022/08/08 04:54:11;;;;;;;6.38;3.78;;;11.90;99.90;;;;;;5087884;28;20039;-62
2022/08/08 04:56:37;;;;;;;6.68;3.95;;;12.00;99.90;;;;;;5076202;28;20521;-62
2022/08/08 04:59:03;;;;;;;7.25;4.03;;;12.20;99.90;;;;;;5088390;28;20024;-62
2022/08/08 05:01:29;;;;;;;10.60;3.72;;;12.40;99.90;;;;;;5089381;28;20024;-62
2022/08/08 05:03:54;;;;;;;6.00;3.45;;;12.40;99.90;;;;;;5088954;28;20028;-62
2022/08/08 05:06:20;;;;;;;4.60;3.42;;;12.50;99.90;;;;;;5087979;28;20020;-61
2022/08/08 05:08:46;;;;;;;6.10;3.83;;;12.50;99.90;;;;;;5091643;28;20690;-61
2022/08/08 05:11:15;;;;;;;5.03;3.03;;;12.60;99.90;;;;;;5074280;28;20040;-62
2022/08/08 05:13:41;;;;;;;25.40;6.03;;;12.60;99.90;;;;;;5088216;28;20058;-62
2022/08/08 05:16:07;;;;;;;7.30;3.10;;;12.70;99.90;;;;;;5088701;28;20081;-61
2022/08/08 05:18:35;;;;;;;4.65;3.17;;;12.80;99.90;;;;;;5088287;28;20059;-62
2022/08/08 05:21:02;;;;;;;4.57;3.13;;;12.80;99.90;;;;;;5088879;28;20040;-62
2022/08/08 05:23:28;;;;;;;4.40;3.10;;;12.90;99.90;;;;;;5089741;28;20032;-62
2022/08/08 05:25:53;;;;;;;4.40;3.15;;;13.00;99.90;;;;;;5088996;28;20032;-62
2022/08/08 05:28:19;;;;;;;4.70;3.38;;;13.10;99.90;;;;;;5089316;28;20035;-62
2022/08/08 05:30:45;;;;;;;5.25;3.30;;;13.20;99.90;;;;;;5088309;28;20036;-61
2022/08/08 05:33:11;;;;;;;8.63;3.63;;;13.20;99.90;;;;;;5089196;28;20111;-62
2022/08/08 05:35:40;;;;;;;5.50;3.42;;;13.40;99.90;;;;;;5088006;28;20032;-62
2022/08/08 05:38:06;;;;;;;4.45;3.35;;;13.50;99.90;;;;;;5096125;28;20094;-61
2022/08/08 05:40:33;;;;;;;7.07;3.78;;;13.60;99.90;;;;;;5091544;28;20020;-61
2022/08/08 05:43:09;;;;;;;5.07;3.78;;;13.70;99.90;;;;;;5088474;28;20116;-62
2022/08/08 05:45:35;;;;;;;8.30;3.75;;;13.90;99.90;;;;;;5091119;28;20024;-62
2022/08/08 05:48:03;;;;;;;4.53;3.35;;;14.00;99.90;;;;;;5087109;28;20036;-62
2022/08/08 05:50:30;;;;;;;5.20;3.40;;;14.10;99.90;;;;;;5082535;28;20152;-62
2022/08/08 05:52:57;;;;;;;6.47;3.58;;;14.30;99.90;;;;;;5089195;28;20030;-62
2022/08/08 05:55:23;;;;;;;6.00;3.83;;;14.50;99.90;;;;;;5089478;28;20039;-62
2022/08/08 05:57:51;;;;;;;6.50;3.47;;;14.70;99.90;;;;;;5088431;28;20024;-62
2022/08/08 06:00:17;;;;;;;5.07;3.45;;;14.90;99.90;;;;;;5091510;28;20057;-62
2022/08/08 06:05:33;;;;;;;8.48;4.00;;;15.00;99.90;;;;;;5092794;28;20093;-62
2022/08/08 06:08:00;;;;;;;6.05;3.75;;;14.90;99.90;;;;;;5083442;28;20432;-61
2022/08/08 06:10:30;;;;;;;6.53;3.95;;;15.10;99.90;;;;;;5102992;28;20608;-62
2022/08/08 06:12:56;;;;;;;;;;;15.30;99.90;;;;;;5091720;28;20043;-62
2022/08/08 06:15:22;;;;;;;6.82;3.85;;;15.40;99.90;;;;;;5092204;28;19908;-62
2022/08/08 06:17:50;;;;;;;5.15;3.85;;;15.40;99.90;;;;;;5092064;28;20052;-62
2022/08/08 06:20:16;;;;;;;8.02;3.80;;;15.50;99.90;;;;;;5093223;28;20036;-62
2022/08/08 06:22:42;;;;;;;7.93;4.00;;;15.70;99.90;;;;;;5098631;28;20032;-61
2022/08/08 06:25:08;;;;;;;6.13;4.05;;;15.80;99.90;;;;;;5072121;28;20721;-62
2022/08/08 06:27:51;;;;;;;4.72;3.60;;;16.10;99.90;;;;;;5085652;28;20028;-62
2022/08/08 06:30:18;;;;;;;7.10;4.00;;;16.50;99.90;;;;;;5091849;28;20039;-62
2022/08/08 06:32:57;;;;;;;5.93;3.95;;;16.70;99.90;;;;;;5092757;28;20040;-62
2022/08/08 06:35:24;;;;;;;9.30;3.97;;;17.10;99.90;;;;;;5092945;28;20028;-62
2022/08/08 06:37:57;;;;;;;9.98;4.05;;;17.30;99.90;;;;;;5092127;28;20024;-62
2022/08/08 06:40:27;;;;;;;7.30;4.40;;;17.60;99.90;;;;;;5092348;28;20043;-62
2022/08/08 06:43:12;;;;;;;7.55;4.70;;;17.90;99.90;;;;;;5078613;28;20040;-62
2022/08/08 06:45:38;;;;;;;6.75;4.55;;;18.10;99.90;;;;;;5084623;28;20117;-62
2022/08/08 06:48:04;;;;;;;6.38;3.92;;;18.30;99.90;;;;;;5091544;28;20058;-62
2022/08/08 06:50:31;;;;;;;6.90;4.30;;;18.50;99.90;;;;;;5094683;28;20056;-62
2022/08/08 06:53:05;;;;;;;5.13;4.32;;;18.60;99.90;;;;;;5093280;28;20024;-62
2022/08/08 06:55:31;;;;;;;5.25;4.25;;;18.80;99.90;;;;;;5100271;27;20063;-62
2022/08/08 06:57:57;;;;;;;7.63;4.50;;;19.00;99.90;;;;;;5090292;28;20024;-62
2022/08/08 07:00:22;;;;;;;7.10;4.22;;;19.30;99.90;;;;;;5090462;28;20028;-62
2022/08/08 07:02:53;;;;;;;6.35;4.22;;;19.40;99.90;;;;;;5091549;28;20039;-62
2022/08/08 07:05:23;;;;;;;5.85;4.28;;;19.60;99.90;;;;;;5091050;28;20036;-62
2022/08/08 07:07:51;;;;;;;5.82;4.05;;;19.80;99.90;;;;;;5089306;28;20118;-62
2022/08/08 07:10:20;;;;;;;5.03;3.92;;;20.00;99.90;;;;;;5087445;28;20059;-63
2022/08/08 07:12:53;;;;;;;5.53;4.18;;;20.20;99.90;;;;;;5092297;28;20604;-63
2022/08/08 07:15:58;;;;;;;5.47;4.32;;;20.40;99.90;;;;;;5092136;28;20035;-62
2022/08/08 07:18:46;;;;;;;4.70;3.90;;;20.40;99.90;;;;;;5091485;28;20044;-62
2022/08/08 07:21:16;;;;;;;8.07;4.40;;;20.60;99.90;;;;;;5091385;28;20024;-62
2022/08/08 07:24:21;;;;;;;5.93;4.03;;;20.90;99.90;;;;;;5090811;28;20028;-62
2022/08/08 07:26:52;;;;;;;5.97;4.13;;;21.10;99.90;;;;;;5082178;28;20063;-62
2022/08/08 07:29:18;;;;;;;10.38;3.60;;;21.30;99.10;;;;;;5093615;28;20019;-62
2022/08/08 07:31:45;;;;;;;8.32;3.70;;;21.50;98.10;;;;;;5112161;28;20039;-62
2022/08/08 07:34:12;;;;;;;6.32;3.85;;;21.70;97.10;;;;;;5092476;28;20028;-62
2022/08/08 07:36:38;;;;;;;5.47;4.38;;;21.80;96.80;;;;;;5078531;28;20115;-62
2022/08/08 07:39:06;;;;;;;6.47;3.95;;;21.90;96.10;;;;;;5089323;28;20056;-62
2022/08/08 07:41:35;;;;;;;6.40;4.10;;;22.00;95.90;;;;;;5089010;28;20114;-62
2022/08/08 07:44:04;;;;;;;5.78;3.78;;;22.10;95.10;;;;;;5087192;28;20383;-62
2022/08/08 07:46:30;;;;;;;4.50;3.70;;;22.30;94.60;;;;;;5087772;28;20063;-63
2022/08/08 07:48:56;;;;;;;6.60;3.75;;;22.40;94.80;;;;;;5086512;28;20074;-63
2022/08/08 07:51:23;;;;;;;5.53;4.05;;;22.50;94.40;;;;;;5084721;28;20032;-63
2022/08/08 07:54:13;;;;;;;7.43;4.28;;;22.70;94.00;;;;;;5090550;28;20032;-63
2022/08/08 07:56:59;;;;;;;4.68;3.92;;;22.80;93.80;;;;;;5088976;28;20074;-62
2022/08/08 07:59:29;;;;;;;6.40;4.32;;;22.80;92.80;;;;;;5060299;28;20028;-63
2022/08/08 08:01:57;;;;;;;7.70;4.22;;;22.90;93.30;;;;;;5089800;28;20042;-63
2022/08/08 08:04:29;;;;;;;4.97;3.47;;;23.00;92.00;;;;;;5091151;28;20036;-63
2022/08/08 08:06:58;;;;;;;6.85;3.78;;;23.10;91.50;;;;;;5089698;28;20078;-62
2022/08/08 08:09:33;;;;;;;6.05;4.50;;;23.20;91.00;;;;;;5091414;28;20032;-62
2022/08/08 08:11:59;;;;;;;5.63;4.00;;;23.20;90.20;;;;;;5090886;28;20475;-63
2022/08/08 08:14:50;;;;;;;8.20;3.78;;;23.30;90.40;;;;;;5092340;28;20076;-63
2022/08/08 08:17:18;;;;;;;6.80;4.57;;;23.30;91.20;;;;;;5087842;28;20042;-63
2022/08/08 08:19:47;;;;;;;5.18;3.90;;;23.30;90.30;;;;;;5090743;28;20186;-63
2022/08/08 08:22:14;;;;;;;6.38;5.03;;;23.50;90.70;;;;;;5070345;28;20111;-63
2022/08/08 08:24:41;;;;;;;5.75;4.20;;;23.60;90.00;;;;;;5078547;28;20024;-63
2022/08/08 08:27:07;;;;;;;4.60;4.05;;;23.80;89.60;;;;;;5076786;28;20024;-63
2022/08/08 08:29:32;;;;;;;7.75;4.30;;;23.80;88.00;;;;;;5076643;28;20040;-63
2022/08/08 08:31:58;;;;;;;7.38;4.20;;;23.90;87.30;;;;;;5087431;28;20042;-63
2022/08/08 08:34:25;;;;;;;8.65;4.35;;;24.00;87.60;;;;;;5087843;28;20040;-63
2022/08/08 08:36:50;;;;;;;5.68;3.83;;;24.00;87.00;;;;;;5086005;28;20620;-63
2022/08/08 08:39:16;;;;;;;5.72;3.95;;;24.10;83.90;;;;;;5088207;28;20129;-63
2022/08/08 08:41:42;;;;;;;6.65;3.70;;;24.30;86.20;;;;;;5087878;28;20081;-63
2022/08/08 08:44:09;;;;;;;4.75;3.58;;;24.30;82.20;;;;;;5089336;28;20028;-63
2022/08/08 08:46:36;;;;;;;5.03;3.40;;;24.30;82.40;;;;;;5089925;28;20415;-63
2022/08/08 08:49:02;;;;;;;4.70;3.10;;;24.50;82.30;;;;;;5088113;28;20043;-63
2022/08/08 08:51:31;;;;;;;4.47;2.83;;;24.70;78.10;;;;;;5089893;28;20040;-64
2022/08/08 08:54:00;;;;;;;5.95;3.10;;;24.60;76.90;;;;;;5069440;28;20039;-63
2022/08/08 08:56:27;;;;;;;4.63;3.17;;;24.80;76.40;;;;;;5088034;28;20166;-63
2022/08/08 08:58:56;;;;;;;3.42;2.70;;;25.10;75.40;;;;;;5089671;28;20435;-63
2022/08/08 09:01:25;;;;;;;5.25;3.10;;;25.30;72.20;;;;;;5073702;28;20105;-64
2022/08/08 09:03:54;;;;;;;4.15;3.30;;;25.30;73.70;;;;;;5083784;28;20032;-64
2022/08/08 09:06:26;;;;;;;7.78;3.13;;;24.80;75.10;;;;;;5097425;28;20141;-63
2022/08/08 09:09:00;;;;;;;7.13;3.08;;;24.80;75.70;;;;;;5092294;28;20036;-62
2022/08/08 09:11:31;;;;;;;7.70;3.00;;;25.00;76.10;;;;;;5090922;28;20516;-64
2022/08/08 09:13:58;;;;;;;5.68;2.83;;;25.30;69.70;;;;;;5097673;28;20028;-62
2022/08/08 09:16:24;;;;;;;7.07;2.30;;;25.30;68.70;;;;;;5087655;28;20024;-62
2022/08/08 09:18:50;;;;;;;6.20;2.40;;;25.40;60.70;;;;;;5089830;28;20418;-62
2022/08/08 09:21:17;;;;;;;3.30;2.30;;;25.40;61.60;;;;;;5087234;28;20686;-63
2022/08/08 09:23:45;;;;;;;3.47;2.10;;;25.70;62.00;;;;;;5091873;28;20083;-63
2022/08/08 09:26:41;;;;;;;3.95;2.00;;;25.90;59.80;;;;;;5089013;28;20067;-62
2022/08/08 09:29:07;;;;;;;4.88;2.28;;;25.80;56.50;;;;;;5083772;28;20036;-62
2022/08/08 09:31:53;;;;;;;3.15;2.53;;;25.70;58.30;;;;;;5109980;28;20035;-62
2022/08/08 09:34:21;;;;;;;2.22;2.00;;;25.70;59.60;;;;;;5096676;28;20082;-62
2022/08/08 09:36:47;;;;;;;3.15;1.88;;;25.70;58.00;;;;;;5089368;28;20343;-62
2022/08/08 09:39:19;;;;;;;3.45;2.10;;;25.60;55.10;;;;;;5087452;28;20497;-62
2022/08/08 09:41:58;;;;;;;6.97;1.92;;;25.50;57.50;;;;;;5089949;28;20119;-63
2022/08/08 09:44:46;;;;;;;2.28;2.08;;;25.40;55.40;;;;;;5091076;28;20030;-63
2022/08/08 09:47:13;;;;;;;3.50;2.10;;;25.60;56.90;;;;;;5072889;28;20115;-63
2022/08/08 09:49:42;;;;;;;5.43;1.92;;;25.90;56.60;;;;;;5089304;28;20044;-62
2022/08/08 09:52:08;;;;;;;2.95;2.30;;;26.00;55.60;;;;;;5089576;28;20081;-62
2022/08/08 09:54:42;;;;;;;6.38;2.00;;;26.10;56.60;;;;;;5091707;28;20036;-62
2022/08/08 09:57:10;;;;;;;6.88;1.80;;;25.90;55.10;;;;;;5097907;28;20385;-62
2022/08/08 09:59:39;;;;;;;3.03;1.90;;;25.90;57.40;;;;;;5088945;28;20489;-62
2022/08/08 10:02:05;;;;;;;2.55;2.00;;;26.40;56.30;;;;;;5088420;28;20381;-63
2022/08/08 10:04:37;;;;;;;3.67;2.28;;;26.70;55.50;;;;;;5108561;28;20036;-63
2022/08/08 10:07:03;;;;;;;6.32;2.20;;;26.60;54.80;;;;;;5089939;28;20047;-62
2022/08/08 10:09:32;;;;;;;2.10;1.77;;;26.70;54.40;;;;;;5089120;28;20457;-63
2022/08/08 10:12:00;;;;;;;8.75;2.40;;;26.90;54.70;;;;;;5087491;28;20039;-63
2022/08/08 10:14:34;;;;;;;2.47;2.05;;;27.00;53.30;;;;;;5093692;28;20035;-62
2022/08/08 10:17:03;;;;;;;5.20;2.20;;;26.80;53.80;;;;;;5083574;28;20032;-62
2022/08/08 10:19:41;;;;;;;2.00;1.73;;;26.60;53.30;;;;;;5089110;28;20135;-61
2022/08/08 10:22:08;;;;;;;5.15;2.28;;;26.50;53.70;;;;;;5089098;28;20060;-62
2022/08/08 10:24:35;;;;;;;3.38;2.17;;;26.70;53.70;;;;;;5090857;28;20040;-62
2022/08/08 10:27:04;;;;;;;4.97;1.85;;;26.70;53.80;;;;;;5088742;28;20027;-62
2022/08/08 10:29:46;;;;;;;2.85;2.20;;;26.80;54.10;;;;;;5088805;28;20381;-62
2022/08/08 10:32:36;;;;;;;2.22;2.03;;;27.30;53.00;;;;;;5088067;28;20032;-62
2022/08/08 10:35:14;;;;;;;5.45;2.22;;;27.50;53.20;;;;;;5088728;28;20093;-62
2022/08/08 10:37:59;;;;;;;4.20;2.20;;;27.60;51.10;;;;;;5087388;28;20060;-62
2022/08/08 10:40:30;;;;;;;2.67;2.13;;;27.60;52.10;;;;;;5089058;28;20047;-62
2022/08/08 10:43:05;;;;;;;4.03;2.50;;;27.70;51.90;;;;;;5090975;28;20815;-62
2022/08/08 10:45:45;;;;;;;5.05;2.42;;;27.70;51.90;;;;;;5089791;28;20028;-62
2022/08/08 10:48:14;;;;;;;3.05;2.03;;;27.40;53.00;;;;;;5090215;28;20446;-62
2022/08/08 10:50:39;;;;;;;2.95;2.33;;;27.20;52.30;;;;;;5072405;28;20127;-62
2022/08/08 10:53:07;;;;;;;4.70;2.25;;;27.20;52.20;;;;;;5090843;28;20111;-62
2022/08/08 10:55:36;;;;;;;4.18;2.30;;;27.30;52.60;;;;;;5091026;28;20032;-62
2022/08/08 10:58:04;;;;;;;6.18;2.40;;;27.50;52.10;;;;;;5091770;28;20031;-62
2022/08/08 11:00:31;;;;;;;3.05;2.47;;;27.50;52.00;;;;;;5093548;28;20028;-62
2022/08/08 11:03:11;;;;;;;2.72;2.10;;;27.30;53.50;;;;;;5087955;28;20461;-62
2022/08/08 11:05:51;;;;;;;3.47;2.50;;;27.70;53.30;;;;;;5098048;28;20027;-62
2022/08/08 11:08:27;;;;;;;2.50;2.28;;;27.80;52.30;;;;;;5093517;28;20115;-62
2022/08/08 11:11:10;;;;;;;3.22;2.17;;;28.10;52.80;;;;;;5095755;28;20020;-62
2022/08/08 11:13:46;;;;;;;3.58;2.38;;;28.60;51.50;;;;;;5086658;28;20044;-62
2022/08/08 11:16:26;;;;;;;3.58;2.30;;;28.40;51.20;;;;;;5098562;28;20020;-62
2022/08/08 11:18:53;;;;;;;2.75;2.42;;;28.40;50.10;;;;;;5091522;28;20497;-62
2022/08/08 11:21:22;;;;;;;2.60;2.20;;;28.70;50.40;;;;;;5091224;28;20035;-62
2022/08/08 11:23:49;;;;;;;5.20;2.00;;;28.80;48.80;;;;;;5083595;28;20020;-62
2022/08/08 11:26:19;;;;;;;2.78;2.20;;;29.10;48.70;;;;;;5081425;28;20027;-62
2022/08/08 11:28:45;;;;;;;4.77;2.20;;;29.40;48.50;;;;;;5090679;28;20081;-62
2022/08/08 11:31:15;;;;;;;3.30;2.08;;;29.20;48.30;;;;;;5096941;28;20081;-62
2022/08/08 11:33:51;;;;;;;3.67;2.30;;;29.00;49.00;;;;;;5080765;28;20819;-62
2022/08/08 11:36:19;;;;;;;11.15;2.63;;;28.80;50.10;;;;;;5100147;28;20027;-62
2022/08/08 11:38:48;;;;;;;4.13;2.50;;;28.50;49.70;;;;;;5096329;28;20024;-62
2022/08/08 11:41:16;;;;;;;5.40;2.40;;;28.80;50.40;;;;;;5090968;28;20040;-62
2022/08/08 11:43:44;;;;;;;4.50;2.03;;;29.60;50.70;;;;;;5090197;28;20032;-62
2022/08/08 11:46:10;;;;;;;2.28;2.00;;;30.10;50.30;;;;;;5091318;28;20028;-63
2022/08/08 11:48:37;;;;;;;2.83;2.47;;;29.80;45.60;;;;;;5091240;28;20039;-62
2022/08/08 11:51:03;;;;;;;4.43;2.33;;;29.00;45.50;;;;;;5091421;28;20092;-61
2022/08/08 11:53:30;;;;;;;2.70;2.00;;;28.40;45.60;;;;;;5090061;28;20028;-62
2022/08/08 11:55:55;;;;;;;5.55;2.28;;;28.60;48.90;;;;;;5079715;28;20032;-62
2022/08/08 11:58:32;;;;;;;5.93;1.80;;;28.90;46.30;;;;;;5088518;28;20366;-62
2022/08/08 12:00:58;;;;;;;1.90;1.80;;;29.50;45.40;;;;;;5093456;28;20027;-62
2022/08/08 12:03:32;;;;;;;5.07;2.05;;;29.90;44.80;;;;;;5089069;28;20047;-62
2022/08/08 12:05:59;;;;;;;2.95;1.58;;;29.60;43.60;;;;;;5089331;28;20028;-62
2022/08/08 12:08:36;;;;;;;4.55;1.90;;;29.60;45.80;;;;;;5089993;28;20103;-63
2022/08/08 12:11:05;;;;;;;3.50;1.65;;;29.70;43.80;;;;;;5072478;28;20025;-62
2022/08/08 12:13:31;;;;;;;2.45;2.05;;;29.80;45.90;;;;;;5090972;28;20078;-62
2022/08/08 12:16:16;;;;;;;3.28;2.30;;;29.40;44.70;;;;;;5094434;28;20649;-62
2022/08/08 12:18:51;;;;;;;2.45;2.25;;;29.10;46.70;;;;;;5090638;28;20112;-62
2022/08/08 12:21:22;;;;;;;8.23;2.08;;;29.40;46.70;;;;;;5081250;28;20036;-61
2022/08/08 12:23:49;;;;;;;5.57;2.03;;;29.50;46.00;;;;;;5074516;28;20458;-60
2022/08/08 12:26:23;;;;;;;2.63;2.17;;;29.40;45.50;;;;;;5078302;28;20051;-60
2022/08/08 12:28:58;;;;;;;3.88;2.40;;;29.10;46.60;;;;;;5081106;28;20053;-62
2022/08/08 12:31:33;;;;;;;2.17;1.98;;;28.90;46.10;;;;;;5089154;28;20032;-63
2022/08/08 12:34:00;;;;;;;2.28;2.05;;;28.80;45.70;;;;;;5090566;28;20059;-63
2022/08/08 12:36:41;;;;;;;4.05;2.20;;;28.90;44.40;;;;;;5099608;28;20110;-63
2022/08/08 12:39:07;;;;;;;2.38;2.00;;;29.00;45.20;;;;;;5090180;28;20024;-63
2022/08/08 12:41:35;;;;;;;4.13;2.33;;;28.80;44.70;;;;;;5089893;28;20040;-63
2022/08/08 12:44:13;;;;;;;2.83;2.03;;;28.70;44.40;;;;;;5087535;28;20562;-62
2022/08/08 12:46:39;;;;;;;3.08;1.60;;;29.10;44.20;;;;;;5090192;28;20032;-63
2022/08/08 12:49:05;;;;;;;2.33;1.75;;;29.60;45.20;;;;;;5090119;28;20036;-63
2022/08/08 12:51:49;;;;;;;3.50;1.83;;;30.00;43.50;;;;;;5091147;28;20043;-63
2022/08/08 12:54:26;;;;;;;1.95;1.75;;;30.10;43.30;;;;;;5092256;28;20060;-63
2022/08/08 12:56:53;;;;;;;3.45;2.10;;;30.10;44.10;;;;;;5089084;28;20385;-63
2022/08/08 12:59:27;;;;;;;2.47;2.03;;;29.70;42.10;;;;;;5088860;28;20020;-62
2022/08/08 13:01:56;;;;;;;2.58;1.80;;;29.40;44.30;;;;;;5089655;28;20085;-62
2022/08/08 13:04:26;;;;;;;2.30;1.90;;;29.40;43.00;;;;;;5100989;28;20351;-63
2022/08/08 13:07:00;;;;;;;4.13;1.75;;;29.40;42.00;;;;;;5090022;28;20040;-63
2022/08/08 13:09:28;;;;;;;2.25;1.90;;;29.30;43.20;;;;;;5089189;28;20032;-62
2022/08/08 13:11:54;;;;;;;2.92;1.80;;;29.40;42.60;;;;;;5084446;28;20036;-63
2022/08/08 13:14:20;;;;;;;2.25;2.00;;;29.90;44.10;;;;;;5077745;28;20042;-62
2022/08/08 13:16:47;;;;;;;3.13;2.00;;;29.80;41.80;;;;;;5093402;28;20068;-63
2022/08/08 13:19:13;;;;;;;2.58;1.90;;;29.50;43.20;;;;;;5080965;28;20047;-63
2022/08/08 13:21:46;;;;;;;3.92;1.90;;;29.20;42.60;;;;;;5088466;28;20043;-63
2022/08/08 13:24:12;;;;;;;2.22;1.80;;;29.50;42.30;;;;;;5087510;28;20121;-64
2022/08/08 13:26:38;;;;;;;1.90;1.70;;;29.50;42.30;;;;;;5086514;28;20064;-63
2022/08/08 13:29:10;;;;;;;5.05;1.92;;;29.60;41.40;;;;;;5083243;28;20059;-63